CJZ5 weather

CLOSED Virden (West) Airport
Virden, Manitoba, Canada

Public forecast

Using degrees Celsius for public forecast. Weather courtesy of forecast.io.

METAR (pilot weather report)

Closest report is Brandon Municipal Airport, 43.2 nm (79.9 km) E. Retrieved 2019/05/25 21:00 UTC (3 minutes ago):

CYBR 252100Z 28008KT 220V290 15SM FEW060 FEW130 BKN250 21/06 A2988 RMK CU1AC1CI4 SLP127 DENSITY ALT 2400FT

TAF (pilot weather forecast)

Closest forecast is Brandon Municipal Airport, 43.2 nm (79.9 km) E. Retrieved 2019/05/25 18:42 UTC (2 hours ago):

TAF CYBR 251739Z 2518/2606 26010KT P6SM FEW040 SCT250 FM252000 24010KT P6SM BKN050 BKN250 TEMPO 2521/2603 P6SM -SHRA OVC050 BECMG 2522/2524 32010KT FM260300 05012G22KT P6SM -SHRA OVC030 TEMPO 2603/2606 5SM -SHRA BR BKN012 OVC020 RMK NXT FCST BY 260000Z